X  Κλείσε Στοιχεία αεροπορικών μετεωρολογικών δεδομένων METAR     EBAW Antwerp International Airport (Deurne)
θερμοκρασία
19°C θερμοκρασία
9°C Σημείο δρόσου
52% Υγρασία



Ανεμος
14 KM/H
9 MPH
4 M/S
8 KTS



240°
DND
Τρέχουσες συνθήκες

Μερικώς συννεφιασμένος Μερικώς συννεφιασμένος
πίεση 1018.92 (hPa) - 30.09 (inHg)
Ορατότητα 6.2 (μίλι) - 10 (km)
Aεροδρόμιο
Κωδικός αεροδρομίου EBAW

Τοποθεσία: Antwerp International Airport (Deurne)
Απόσταση: 90 (km)

Metar:
EBAW 011520Z 24008KT 200V270 9999 FEW040 19/09 Q1019 NOSIG

ώρα: 01-07-2022 17:20 CEST